Terminal Aerodrome Forecast
Issued by NWS

Home | Current Version | Previous Version | Text Only | Print | Product List | Glossary On
Versions: 1 2 3 4 5 6 7 8 9 10 11 12 13 14 15 16 17 18 19 20 21 22 23 24 25 26 27 28 29 30 31
000
FTUS45 KBOU 050530
TAFAPA
TAF
KAPA 050530Z 0506/0606 VRB05KT P6SM VCSH BKN050 OVC080
     FM050800 22010KT P6SM SCT050 BKN080
     FM051300 25009KT P6SM FEW060 SCT100
     FM051800 36009KT P6SM FEW100 SCT150
     FM060100 21008KT P6SM FEW220=

USA.gov is the U.S. government's official web portal to all federal, state and local government web resources and services.